Time;durP1;ratioP1;P1;durP2;ratioP2;P2;SDS_P1;SDS_P2;PMS_P1;PMS_P2;Temp;Humidity;BMP_temperature;BMP_pressure;BME280_temperature;BME280_humidity;BME280_pressure;Samples;Min_cycle;Max_cycle;Signal;HPM_P1;HPM_P2
2021/06/09 00:00:32;;;;;;;6.75;6.15;;;;;;;22.59;55.21;101985.47;4989102;28;20038;-57
2021/06/09 00:02:57;;;;;;;5.97;5.68;;;;;;;22.63;55.00;101981.78;5005888;28;20534;-56
2021/06/09 00:05:22;;;;;;;6.40;5.75;;;;;;;22.57;55.20;101990.44;5005922;28;20034;-56
2021/06/09 00:07:48;;;;;;;6.10;5.78;;;;;;;22.54;55.32;101983.75;5006482;28;20049;-56
2021/06/09 00:10:13;;;;;;;6.47;5.97;;;;;;;22.50;55.86;101982.84;5006871;28;20034;-56
2021/06/09 00:12:38;;;;;;;6.40;5.78;;;;;;;22.48;55.75;101987.03;5005039;28;20161;-57
2021/06/09 00:15:06;;;;;;;6.60;6.10;;;;;;;22.61;55.60;101985.94;5007186;28;20030;-56
2021/06/09 00:17:31;;;;;;;6.47;5.88;;;;;;;22.53;55.81;101984.91;5006845;28;20116;-56
2021/06/09 00:19:57;;;;;;;5.97;5.47;;;;;;;22.53;55.22;101984.91;5006263;28;20038;-56
2021/06/09 00:22:22;;;;;;;6.00;5.55;;;;;;;22.44;55.60;101981.47;5005305;28;20492;-59
2021/06/09 00:24:48;;;;;;;6.65;6.05;;;;;;;22.48;55.81;101987.81;5005358;28;20041;-56
2021/06/09 00:27:13;;;;;;;6.68;6.07;;;;;;;22.50;55.72;101990.97;5006324;28;20045;-56
2021/06/09 00:29:39;;;;;;;6.35;5.82;;;;;;;22.52;55.60;101985.22;5007264;28;20096;-55
2021/06/09 00:32:04;;;;;;;6.70;6.20;;;;;;;22.47;55.83;101986.22;5003917;28;20030;-55
2021/06/09 00:34:30;;;;;;;5.80;5.40;;;;;;;22.49;55.59;101988.63;5007042;28;20037;-56
2021/06/09 00:36:55;;;;;;;6.22;5.82;;;;;;;22.51;55.31;101983.66;5005791;28;20042;-56
2021/06/09 00:39:20;;;;;;;6.22;5.80;;;;;;;22.48;55.81;101987.03;5005629;28;20404;-56
2021/06/09 00:41:46;;;;;;;7.00;6.38;;;;;;;22.51;55.78;101986.38;5006641;28;20089;-55
2021/06/09 00:44:11;;;;;;;6.95;6.28;;;;;;;22.53;55.49;101987.59;5004915;28;20052;-55
2021/06/09 00:46:37;;;;;;;6.97;6.45;;;;;;;22.44;55.66;101992.31;5006205;28;20389;-56
2021/06/09 00:49:03;;;;;;;6.72;6.25;;;;;;;22.49;55.50;101985.91;5006596;28;20096;-55
2021/06/09 00:51:29;;;;;;;7.15;6.38;;;;;;;22.40;56.08;101983.28;5006578;28;20510;-56
2021/06/09 00:53:58;;;;;;;6.97;6.40;;;;;;;22.42;56.02;101984.53;5005925;28;20046;-56
2021/06/09 00:56:23;;;;;;;7.18;6.55;;;;;;;22.41;55.83;101987.56;5004553;28;20500;-56
2021/06/09 00:58:49;;;;;;;6.20;5.88;;;;;;;22.41;55.97;101990.25;5004979;28;20045;-56
2021/06/09 01:01:17;;;;;;;9.75;6.35;;;;;;;22.46;55.75;101983.88;5006258;28;20038;-56
2021/06/09 01:03:42;;;;;;;6.28;5.80;;;;;;;22.48;56.04;101985.13;5004755;28;20038;-54
2021/06/09 01:06:08;;;;;;;6.18;5.82;;;;;;;22.44;55.96;101990.41;5006164;28;20407;-56
2021/06/09 01:08:36;;;;;;;6.97;6.35;;;;;;;22.38;56.13;101985.50;5005990;28;20426;-56
2021/06/09 01:11:02;;;;;;;8.73;6.32;;;;;;;22.36;55.94;101985.84;5003814;28;20069;-57
2021/06/09 01:13:29;;;;;;;8.27;6.82;;;;;;;22.35;56.14;101983.47;5006206;28;20062;-56
2021/06/09 01:15:54;;;;;;;6.78;6.30;;;;;;;22.36;55.88;101985.84;5006363;28;20123;-57
2021/06/09 01:18:20;;;;;;;7.57;6.97;;;;;;;22.39;55.84;101979.78;5004527;28;20427;-56
2021/06/09 01:20:46;;;;;;;7.75;6.78;;;;;;;22.37;56.16;101982.03;5005706;28;20042;-56
2021/06/09 01:23:11;;;;;;;7.93;7.15;;;;;;;22.38;55.89;101985.50;5003879;28;20050;-56
2021/06/09 01:25:36;;;;;;;7.72;7.03;;;;;;;22.36;55.76;101977.72;5004263;28;20060;-55
2021/06/09 01:28:02;;;;;;;7.75;7.22;;;;;;;22.34;56.14;101973.78;5005190;28;20053;-55
2021/06/09 01:30:28;;;;;;;7.40;6.90;;;;;;;22.38;55.65;101971.97;5004218;28;20042;-56
2021/06/09 01:32:53;;;;;;;8.82;7.95;;;;;;;22.34;55.80;101985.41;5004124;28;20042;-56
2021/06/09 01:35:19;;;;;;;8.77;8.05;;;;;;;22.37;56.13;101978.53;5005999;28;20041;-55
2021/06/09 01:37:45;;;;;;;8.55;7.85;;;;;;;22.30;56.28;101975.53;5003263;28;20136;-56
2021/06/09 01:40:15;;;;;;;8.13;7.53;;;;;;;22.37;56.19;101968.50;5005307;28;20034;-56
2021/06/09 01:42:40;;;;;;;9.00;8.18;;;;;;;22.31;55.82;101974.44;5005360;28;20092;-56
2021/06/09 01:45:06;;;;;;;8.88;8.07;;;;;;;22.30;55.73;101976.34;5004487;28;20038;-56
2021/06/09 01:47:32;;;;;;;9.02;8.25;;;;;;;22.28;56.35;101975.09;5005436;28;20172;-56
2021/06/09 01:49:57;;;;;;;8.40;7.70;;;;;;;22.27;56.08;101970.78;5005613;28;20045;-56
2021/06/09 01:52:22;;;;;;;8.45;7.75;;;;;;;22.27;55.66;101973.50;5002596;28;20522;-56
2021/06/09 01:54:48;;;;;;;8.73;7.88;;;;;;;22.26;56.21;101978.16;5005174;28;20045;-56
2021/06/09 01:57:14;;;;;;;10.63;7.97;;;;;;;22.24;56.47;101974.97;5004051;28;20030;-57
2021/06/09 01:59:39;;;;;;;8.40;7.72;;;;;;;22.20;56.31;101974.06;5004657;28;20063;-56
2021/06/09 02:02:04;;;;;;;9.25;8.45;;;;;;;22.15;56.44;101970.75;5004590;28;20143;-56
2021/06/09 02:04:30;;;;;;;8.45;7.78;;;;;;;22.20;56.00;101968.63;5004917;28;20050;-56
2021/06/09 02:06:55;;;;;;;8.35;7.65;;;;;;;22.18;56.40;101975.50;5005255;28;20063;-56
2021/06/09 02:09:21;;;;;;;8.80;8.00;;;;;;;22.13;56.37;101971.06;5003127;28;20042;-54
2021/06/09 02:11:46;;;;;;;8.10;7.50;;;;;;;22.13;56.58;101973.00;5005035;28;20108;-56
2021/06/09 02:14:12;;;;;;;9.00;8.30;;;;;;;22.11;56.17;101977.94;5003249;28;20042;-56
2021/06/09 02:16:39;;;;;;;9.23;8.45;;;;;;;22.13;56.15;101973.78;5002972;28;20046;-56
2021/06/09 02:19:05;;;;;;;9.00;8.15;;;;;;;22.11;56.42;101973.31;5003365;28;20172;-57
2021/06/09 02:21:31;;;;;;;9.63;8.63;;;;;;;22.05;56.38;101971.94;5001929;28;20543;-57
2021/06/09 02:23:56;;;;;;;8.80;8.00;;;;;;;22.08;56.49;101965.06;5003229;28;20034;-56
2021/06/09 02:26:22;;;;;;;9.05;8.30;;;;;;;22.07;56.37;101968.91;5004558;28;20037;-56
2021/06/09 02:28:47;;;;;;;9.55;8.73;;;;;;;22.07;56.53;101966.22;5002830;28;20407;-56
2021/06/09 02:31:13;;;;;;;9.68;8.88;;;;;;;22.02;56.35;101967.19;5003492;28;20085;-56
2021/06/09 02:33:38;;;;;;;9.57;8.80;;;;;;;22.07;56.15;101966.22;5004749;28;20044;-56
2021/06/09 02:36:05;;;;;;;10.77;8.95;;;;;;;22.10;55.75;101962.84;5003930;28;20034;-56
2021/06/09 02:38:30;;;;;;;9.27;8.38;;;;;;;22.08;55.79;101967.78;5004205;28;20038;-56
2021/06/09 02:40:56;;;;;;;10.75;8.40;;;;;;;22.03;56.20;101966.06;5002459;28;20466;-57
2021/06/09 02:43:22;;;;;;;9.70;8.57;;;;;;;22.02;56.22;101961.00;5004055;28;20049;-57
2021/06/09 02:45:50;;;;;;;11.30;8.77;;;;;;;22.03;56.30;101966.06;5004390;28;20348;-56
2021/06/09 02:48:15;;;;;;;9.15;8.50;;;;;;;21.99;56.35;101967.06;4986377;28;20124;-55
2021/06/09 02:50:41;;;;;;;9.23;8.55;;;;;;;21.96;55.95;101952.28;5002580;28;20040;-56
2021/06/09 02:53:09;;;;;;;9.27;8.48;;;;;;;21.94;56.29;101965.34;4986381;28;22168;-56
2021/06/09 02:56:09;;;;;;;9.32;8.60;;;;;;;21.92;56.03;101964.09;5002960;28;20038;-56
2021/06/09 02:58:39;;;;;;;9.32;8.48;;;;;;;21.91;55.91;101966.03;5004215;28;20117;-56
2021/06/09 03:01:14;;;;;;;18.58;9.15;;;;;;;21.84;56.15;101958.38;4996718;28;20048;-56
2021/06/09 03:04:17;;;;;;;10.40;9.05;;;;;;;21.92;55.98;101959.47;5002632;28;20756;-56
2021/06/09 03:06:52;;;;;;;9.45;8.73;;;;;;;21.85;55.91;101957.28;5003581;28;20077;-56
2021/06/09 03:09:43;;;;;;;9.65;8.75;;;;;;;21.86;56.08;101958.03;5001741;28;20404;-57
2021/06/09 03:12:19;;;;;;;9.95;9.20;;;;;;;21.85;55.98;101957.28;5003374;28;20048;-56
2021/06/09 03:15:12;;;;;;;10.20;9.27;;;;;;;21.83;55.97;101956.00;5003044;28;20034;-56
2021/06/09 03:17:43;;;;;;;10.50;9.60;;;;;;;21.87;55.95;101953.47;5004174;28;20085;-56
2021/06/09 03:20:40;;;;;;;10.13;9.10;;;;;;;21.82;56.35;101957.13;5001424;28;20053;-55
2021/06/09 03:23:31;;;;;;;9.45;8.57;;;;;;;21.80;56.26;101951.28;4981525;28;20411;-55
2021/06/09 03:25:59;;;;;;;11.43;9.27;;;;;;;21.77;56.19;101944.59;5004352;28;20046;-56
2021/06/09 03:28:47;;;;;;;10.57;9.63;;;;;;;21.82;55.89;101946.31;5001352;28;20048;-55
2021/06/09 03:31:17;;;;;;;10.48;9.50;;;;;;;21.79;56.00;101936.16;5002507;28;20048;-55
2021/06/09 03:33:44;;;;;;;10.10;9.23;;;;;;;21.74;56.06;101939.06;4985581;28;20045;-56
2021/06/09 03:36:12;;;;;;;10.77;9.98;;;;;;;21.76;55.91;101947.63;5003435;28;20034;-56
2021/06/09 03:39:00;;;;;;;10.65;9.80;;;;;;;21.78;55.97;101940.75;5001722;28;20026;-55
2021/06/09 03:41:31;;;;;;;11.32;9.95;;;;;;;21.77;56.04;101949.22;5003619;28;20073;-56
2021/06/09 03:43:57;;;;;;;10.82;9.73;;;;;;;21.74;55.77;101947.97;5002136;28;20034;-56
2021/06/09 03:46:23;;;;;;;10.93;10.02;;;;;;;21.75;56.02;101944.13;4985546;28;20056;-56
2021/06/09 03:48:48;;;;;;;14.55;10.40;;;;;;;21.69;55.83;101937.31;5002035;28;20042;-56
2021/06/09 03:51:13;;;;;;;12.52;10.50;;;;;;;21.70;56.05;101944.31;5002205;28;20486;-56
2021/06/09 03:53:39;;;;;;;10.73;9.82;;;;;;;21.65;56.10;101936.41;5001687;28;20038;-54
2021/06/09 03:56:04;;;;;;;10.65;9.85;;;;;;;21.68;56.10;101940.38;4999162;28;20046;-56
2021/06/09 03:58:30;;;;;;;11.00;10.00;;;;;;;21.71;56.12;101940.50;5001982;28;20034;-55
2021/06/09 04:00:56;;;;;;;11.38;10.48;;;;;;;21.71;56.08;101939.72;5001987;28;20042;-56
2021/06/09 04:03:22;;;;;;;11.02;10.10;;;;;;;21.73;56.12;101942.88;5001811;28;20571;-56
2021/06/09 04:05:48;;;;;;;10.68;9.77;;;;;;;21.67;56.18;101939.56;5001603;28;20108;-56
2021/06/09 04:08:15;;;;;;;11.25;10.25;;;;;;;21.72;56.01;101942.06;4984360;28;20439;-55
2021/06/09 04:10:41;;;;;;;10.95;10.15;;;;;;;21.71;55.93;101942.41;4985463;28;20037;-55
2021/06/09 04:13:06;;;;;;;11.57;10.45;;;;;;;21.66;55.88;101938.00;5002955;28;20125;-56
2021/06/09 04:15:32;;;;;;;11.77;10.57;;;;;;;21.70;55.80;101938.91;5002619;28;20038;-56
2021/06/09 04:17:57;;;;;;;14.45;9.35;;;;;;;21.66;56.35;101943.41;5001304;28;20041;-55
2021/06/09 04:20:27;;;;;;;11.35;10.13;;;;;;;21.62;56.27;101937.06;5000819;28;20497;-56
2021/06/09 04:22:53;;;;;;;11.75;10.35;;;;;;;21.62;56.09;101936.25;5001855;28;20038;-57
2021/06/09 04:25:18;;;;;;;11.23;10.23;;;;;;;21.53;56.08;101939.03;5001000;28;20030;-56
2021/06/09 04:27:44;;;;;;;12.25;10.85;;;;;;;21.53;56.52;101938.25;5002783;28;20455;-56
2021/06/09 04:30:10;;;;;;;11.88;10.02;;;;;;;21.46;56.79;101938.75;4967003;28;20065;-56
2021/06/09 04:32:51;;;;;;;11.65;10.65;;;;;;;21.52;56.65;101925.84;5000686;28;20034;-55
2021/06/09 04:35:17;;;;;;;11.25;10.20;;;;;;;21.44;56.76;101934.81;5001584;28;20026;-59
2021/06/09 04:37:43;;;;;;;11.20;10.13;;;;;;;21.47;56.73;101936.84;5001316;28;20645;-54
2021/06/09 04:40:14;;;;;;;16.58;10.55;;;;;;;21.41;57.04;101943.56;5001472;28;20034;-56
2021/06/09 04:42:40;;;;;;;11.68;10.13;;;;;;;21.40;57.04;101931.94;5002623;28;20149;-56
2021/06/09 04:45:06;;;;;;;11.60;10.63;;;;;;;21.37;57.52;101938.00;4982126;28;20547;-56
2021/06/09 04:47:31;;;;;;;13.75;10.20;;;;;;;21.39;57.73;101929.59;5003593;28;20054;-56
2021/06/09 04:49:57;;;;;;;11.15;10.13;;;;;;;21.44;57.26;101941.00;5001146;28;20040;-55
2021/06/09 04:52:22;;;;;;;10.95;9.88;;;;;;;21.43;57.64;101936.72;5003175;28;20046;-56
2021/06/09 04:54:47;;;;;;;10.68;9.73;;;;;;;21.36;57.76;101936.44;5002985;28;20042;-55
2021/06/09 04:57:13;;;;;;;12.70;10.20;;;;;;;21.39;57.87;101932.28;5002470;28;20127;-55
2021/06/09 04:59:38;;;;;;;11.55;10.50;;;;;;;21.38;58.02;101936.91;4999137;28;20037;-54
2021/06/09 05:02:04;;;;;;;11.25;10.25;;;;;;;21.45;57.95;101939.88;4998392;28;20076;-55
2021/06/09 05:04:29;;;;;;;12.20;10.18;;;;;;;21.43;57.94;101938.63;5000054;28;20568;-53
2021/06/09 05:06:55;;;;;;;11.52;9.73;;;;;;;21.44;58.18;101938.31;5001989;28;20068;-56
2021/06/09 05:09:20;;;;;;;11.40;10.50;;;;;;;21.41;58.11;101936.25;5002467;28;20553;-53
2021/06/09 05:11:59;;;;;;;12.20;10.52;;;;;;;21.49;58.03;101934.59;5000922;28;20514;-54
2021/06/09 05:14:34;;;;;;;11.73;10.45;;;;;;;21.46;59.19;101937.97;4999341;28;20038;-55
2021/06/09 05:16:59;;;;;;;12.10;10.68;;;;;;;21.50;59.25;101938.91;4984053;28;20049;-54
2021/06/09 05:19:26;;;;;;;14.80;11.40;;;;;;;21.48;58.74;101939.22;4968099;28;20042;-53
2021/06/09 05:21:52;;;;;;;15.35;11.98;;;;;;;21.54;60.92;101947.94;4992783;28;20366;-54
2021/06/09 05:24:19;;;;;;;13.85;11.15;;;;;;;21.46;60.50;101944.16;4968043;28;20044;-55
2021/06/09 05:26:44;;;;;;;16.17;10.52;;;;;;;21.48;59.64;101943.81;5001620;28;20081;-53
2021/06/09 05:29:10;;;;;;;13.90;11.07;;;;;;;21.47;60.03;101939.56;4983992;28;20038;-54
2021/06/09 05:31:36;;;;;;;12.50;10.98;;;;;;;21.49;60.13;101946.22;4988268;28;20113;-53
2021/06/09 05:34:01;;;;;;;14.85;10.68;;;;;;;21.53;60.29;101946.38;5002763;28;20063;-54
2021/06/09 05:36:27;;;;;;;11.32;10.43;;;;;;;21.54;60.13;101947.94;5003486;28;20041;-54
2021/06/09 05:38:53;;;;;;;12.23;11.02;;;;;;;21.53;60.13;101941.72;5001687;28;20049;-55
2021/06/09 05:41:18;;;;;;;12.23;11.15;;;;;;;21.52;60.25;101940.16;4998367;28;20042;-54
2021/06/09 05:43:43;;;;;;;12.38;11.07;;;;;;;21.46;60.43;101943.38;4996716;28;20046;-54
2021/06/09 05:46:10;;;;;;;12.45;11.20;;;;;;;21.50;60.77;101942.38;5000530;28;20034;-54
2021/06/09 05:48:43;;;;;;;13.13;11.63;;;;;;;21.57;60.63;101947.28;5002999;28;20030;-56
2021/06/09 05:51:09;;;;;;;13.73;10.73;;;;;;;21.66;60.65;101948.03;5003591;28;20088;-53
2021/06/09 05:53:35;;;;;;;17.52;11.25;;;;;;;21.74;60.61;101945.25;5003094;28;20037;-55
2021/06/09 05:56:00;;;;;;;12.52;11.07;;;;;;;21.75;60.93;101954.94;5002052;28;20091;-54
2021/06/09 05:58:26;;;;;;;18.40;13.45;;;;;;;21.76;61.28;101950.34;5002006;28;20045;-55
2021/06/09 06:01:00;;;;;;;15.73;14.15;;;;;;;21.84;60.68;101947.56;5004145;28;20124;-56
2021/06/09 06:03:25;;;;;;;15.25;13.60;;;;;;;21.93;60.57;101944.81;5003070;28;20066;-55
2021/06/09 06:05:57;;;;;;;18.23;16.35;;;;;;;21.85;61.21;101946.44;5002239;28;20033;-57
2021/06/09 06:08:26;;;;;;;20.00;17.80;;;;;;;21.84;61.18;101944.84;5002352;28;20046;-59
2021/06/09 06:10:52;;;;;;;20.98;18.88;;;;;;;21.84;61.55;101961.09;4984655;28;20133;-58
2021/06/09 06:13:18;;;;;;;22.67;20.80;;;;;;;21.82;61.79;101957.13;5003663;28;20037;-58
2021/06/09 06:15:44;;;;;;;30.35;26.77;;;;;;;21.54;63.13;101956.06;4983258;28;20407;-58
2021/06/09 06:18:09;;;;;;;32.13;29.05;;;;;;;21.39;63.43;101959.34;4981929;28;20034;-58
2021/06/09 06:20:35;;;;;;;32.25;24.13;;;;;;;21.55;62.69;101955.75;5004305;28;20049;-59
2021/06/09 06:23:00;;;;;;;31.33;28.50;;;;;;;21.55;62.58;101953.03;4996792;28;20038;-59
2021/06/09 06:25:25;;;;;;;26.98;24.13;;;;;;;21.73;61.66;101954.50;5002337;28;20049;-57
2021/06/09 06:27:52;;;;;;;33.15;30.02;;;;;;;21.38;63.48;101961.25;5001937;28;20041;-58
2021/06/09 06:30:19;;;;;;;29.05;26.05;;;;;;;21.71;62.22;101956.75;5002417;28;20780;-57
2021/06/09 06:32:46;;;;;;;29.67;26.67;;;;;;;21.80;61.84;101952.03;5001531;28;20087;-60
2021/06/09 06:35:15;;;;;;;29.73;26.90;;;;;;;21.92;61.69;101956.75;5003420;28;20041;-58
2021/06/09 06:37:44;;;;;;;31.77;26.80;;;;;;;22.15;61.58;101951.81;5001283;28;20044;-57
2021/06/09 06:40:10;;;;;;;30.08;27.23;;;;;;;22.00;62.06;101953.19;4985017;28;20100;-58
2021/06/09 06:42:35;;;;;;;31.50;28.45;;;;;;;22.06;62.02;101959.19;5002585;28;20048;-58
2021/06/09 06:45:01;;;;;;;31.52;28.33;;;;;;;21.94;61.73;101959.91;4997970;28;20034;-58
2021/06/09 06:47:27;;;;;;;31.42;28.60;;;;;;;21.98;61.56;101955.44;5001337;28;20045;-58
2021/06/09 06:49:52;;;;;;;33.55;30.20;;;;;;;21.97;62.71;101953.09;4999098;28;20042;-58
2021/06/09 06:52:18;;;;;;;36.08;32.53;;;;;;;21.96;62.19;101955.00;4999776;28;20412;-58
2021/06/09 06:54:43;;;;;;;34.67;31.48;;;;;;;21.86;62.85;101958.03;4995373;28;20530;-58
2021/06/09 06:57:08;;;;;;;32.35;29.45;;;;;;;21.94;61.97;101951.03;4998181;28;20030;-58
2021/06/09 06:59:34;;;;;;;34.20;30.95;;;;;;;21.82;62.70;101954.44;4999585;28;20518;-58
2021/06/09 07:01:59;;;;;;;35.38;32.17;;;;;;;21.83;62.49;101956.78;4982080;28;20042;-57
2021/06/09 07:04:24;;;;;;;31.27;28.13;;;;;;;22.22;60.92;101952.03;5000024;28;20087;-58
2021/06/09 07:06:50;;;;;;;33.90;30.45;;;;;;;22.10;62.11;101954.72;5000411;28;20072;-57
2021/06/09 07:09:16;;;;;;;33.97;30.77;;;;;;;21.96;62.25;101955.00;4997616;28;20404;-57
2021/06/09 07:11:42;;;;;;;33.35;29.83;;;;;;;21.95;62.21;101949.91;4998661;28;20128;-58
2021/06/09 07:14:08;;;;;;;33.85;30.42;;;;;;;22.15;62.94;101955.31;4986295;28;20069;-58
2021/06/09 07:16:33;;;;;;;33.65;30.55;;;;;;;22.13;62.35;101954.81;4993624;28;20069;-53
2021/06/09 07:19:02;;;;;;;32.78;29.35;;;;;;;22.44;62.48;101965.22;5014000;28;20429;-57
2021/06/09 07:21:28;;;;;;;32.35;28.92;;;;;;;22.56;61.12;101959.84;5001040;28;20473;-56
2021/06/09 07:23:53;;;;;;;33.70;30.45;;;;;;;22.59;61.79;101958.38;5002267;28;20153;-58
2021/06/09 07:26:19;;;;;;;36.08;30.42;;;;;;;22.76;60.89;101964.41;5001006;28;20372;-58
2021/06/09 07:28:45;;;;;;;34.08;30.73;;;;;;;22.92;61.30;101967.28;4982575;28;20523;-60
2021/06/09 07:31:15;;;;;;;34.10;30.90;;;;;;;23.05;60.94;101965.38;5001291;28;20030;-55
2021/06/09 07:33:40;;;;;;;33.47;30.20;;;;;;;22.94;61.17;101957.69;5002688;28;20038;-58
2021/06/09 07:36:06;;;;;;;35.53;32.13;;;;;;;22.93;60.88;101961.53;4984069;28;20520;-60
2021/06/09 07:38:35;;;;;;;32.97;29.50;;;;;;;23.15;60.89;101957.56;4983708;28;20053;-52
2021/06/09 07:41:01;;;;;;;36.08;32.53;;;;;;;23.13;60.53;101953.63;4984455;28;20069;-54
2021/06/09 07:43:33;;;;;;;36.70;33.40;;;;;;;23.20;60.91;101959.25;4985334;28;20116;-57
2021/06/09 07:45:59;;;;;;;37.85;34.10;;;;;;;23.09;61.15;101972.47;5002681;28;20045;-57
2021/06/09 07:48:25;;;;;;;37.47;33.78;;;;;;;23.13;61.13;101965.28;5000589;28;20045;-61
2021/06/09 07:51:06;;;;;;;35.80;32.08;;;;;;;23.41;61.08;101973.53;5001944;28;20033;-60
2021/06/09 07:53:31;;;;;;;36.55;33.17;;;;;;;23.14;60.25;101974.19;5000384;28;20038;-58
2021/06/09 07:55:57;;;;;;;38.08;34.25;;;;;;;22.99;60.95;101967.50;5001807;28;20057;-61
2021/06/09 07:58:23;;;;;;;35.25;31.85;;;;;;;23.06;59.73;101978.56;4984575;28;20523;-59
2021/06/09 08:00:51;;;;;;;36.40;33.03;;;;;;;23.40;59.44;101980.88;5002432;28;20075;-58
2021/06/09 08:03:16;;;;;;;32.92;29.77;;;;;;;23.55;59.53;101979.41;4997770;28;20072;-58
2021/06/09 08:05:42;;;;;;;32.30;29.40;;;;;;;23.33;57.60;101975.19;5000661;28;20042;-57
2021/06/09 08:08:12;;;;;;;29.95;27.27;;;;;;;23.49;57.47;101978.06;4998922;28;20042;-56
2021/06/09 08:10:37;;;;;;;29.17;26.40;;;;;;;23.70;56.62;101970.56;4998402;28;20364;-58
2021/06/09 08:13:02;;;;;;;30.35;27.45;;;;;;;23.86;56.63;101967.91;4998542;28;20408;-58
2021/06/09 08:15:28;;;;;;;28.25;25.38;;;;;;;23.74;55.28;101982.31;5003388;28;20034;-58
2021/06/09 08:17:53;;;;;;;29.17;26.15;;;;;;;23.91;55.71;101968.47;4999872;28;20049;-55
2021/06/09 08:20:20;;;;;;;28.98;26.27;;;;;;;24.06;55.38;101969.66;4997795;28;20056;-57
2021/06/09 08:22:46;;;;;;;26.25;23.95;;;;;;;23.96;53.79;101972.88;4983042;28;20046;-58
2021/06/09 08:25:13;;;;;;;27.88;25.27;;;;;;;24.15;54.91;101965.69;5004738;28;20373;-58
2021/06/09 08:27:39;;;;;;;30.80;27.70;;;;;;;23.94;54.53;101973.22;5004781;28;20030;-58
2021/06/09 08:30:07;;;;;;;26.70;24.38;;;;;;;24.13;54.96;101967.97;5006560;28;20060;-57
2021/06/09 08:32:32;;;;;;;26.23;24.02;;;;;;;24.39;54.94;101972.16;5006636;28;20944;-57
2021/06/09 08:34:58;;;;;;;24.95;22.60;;;;;;;24.50;54.35;101975.97;5005828;28;20245;-58
2021/06/09 08:37:23;;;;;;;27.42;24.90;;;;;;;24.38;54.69;101970.56;5005095;28;20472;-57
2021/06/09 08:39:48;;;;;;;28.42;25.48;;;;;;;24.23;53.28;101968.63;5006166;28;20038;-58
2021/06/09 08:42:14;;;;;;;25.60;23.13;;;;;;;24.28;53.47;101973.81;4986764;28;20068;-56
2021/06/09 08:44:41;;;;;;;25.80;23.50;;;;;;;24.47;52.78;101960.34;5006813;28;20037;-56
2021/06/09 08:47:09;;;;;;;25.92;23.52;;;;;;;24.53;53.31;101965.19;5004829;28;20100;-57
2021/06/09 08:49:34;;;;;;;28.92;26.20;;;;;;;24.46;53.59;101964.19;5005019;28;20042;-57
2021/06/09 08:52:00;;;;;;;28.88;25.75;;;;;;;24.41;52.79;101964.44;5005664;28;20044;-57
2021/06/09 08:54:26;;;;;;;25.27;23.08;;;;;;;24.63;52.86;101967.38;4986631;28;20034;-58
2021/06/09 08:56:51;;;;;;;27.70;25.23;;;;;;;24.66;52.20;101966.69;4988423;28;20057;-57
2021/06/09 08:59:16;;;;;;;28.13;24.27;;;;;;;24.76;53.02;101973.53;5005998;28;21668;-54
2021/06/09 09:01:42;;;;;;;25.25;22.67;;;;;;;24.85;53.31;101966.03;5005445;28;20399;-55
2021/06/09 09:04:07;;;;;;;25.35;23.15;;;;;;;24.81;52.03;101973.28;5005552;28;20115;-53
2021/06/09 09:06:33;;;;;;;26.33;23.88;;;;;;;24.77;52.25;101970.47;4988074;28;20042;-56
2021/06/09 09:08:58;;;;;;;26.42;23.70;;;;;;;24.83;52.13;101973.75;5003372;28;20052;-55
2021/06/09 09:11:23;;;;;;;29.10;25.45;;;;;;;24.79;51.88;101972.88;5006515;28;20123;-56
2021/06/09 09:13:49;;;;;;;26.77;23.85;;;;;;;24.79;51.23;101975.59;5005816;28;20038;-56
2021/06/09 09:16:14;;;;;;;29.58;26.98;;;;;;;24.82;52.04;101972.16;5003754;28;20042;-56
2021/06/09 09:18:54;;;;;;;25.00;22.52;;;;;;;24.80;51.90;101963.59;5004831;28;20030;-61
2021/06/09 09:21:39;;;;;;;20.73;18.95;;;;;;;24.68;50.07;101974.50;5003974;28;20092;-61
2021/06/09 09:24:08;;;;;;;21.70;19.63;;;;;;;24.77;49.74;101966.97;5004614;28;20060;-59
2021/06/09 09:26:34;;;;;;;25.35;18.45;;;;;;;24.92;49.39;101977.06;5002273;28;20042;-56
2021/06/09 09:29:22;;;;;;;21.42;19.38;;;;;;;24.60;48.61;101981.69;5003973;28;20057;-56
2021/06/09 09:31:52;;;;;;;21.20;19.20;;;;;;;24.76;50.33;101984.41;5003251;28;22110;-57
2021/06/09 09:34:34;;;;;;;21.75;19.63;;;;;;;24.85;48.86;101981.56;5003561;28;20053;-57
2021/06/09 09:37:06;;;;;;;24.90;22.13;;;;;;;24.74;49.54;101981.25;5003447;28;20041;-57
2021/06/09 09:39:32;;;;;;;26.50;23.95;;;;;;;24.68;49.59;101978.00;5003532;28;20433;-57
2021/06/09 09:41:57;;;;;;;25.98;23.42;;;;;;;24.66;50.25;101974.06;5003652;28;20109;-57
2021/06/09 09:44:22;;;;;;;24.27;22.05;;;;;;;24.72;50.14;101978.09;5002959;28;20463;-57
2021/06/09 09:46:54;;;;;;;25.88;21.95;;;;;;;24.78;50.83;101982.16;5002220;28;20968;-60
2021/06/09 09:49:20;;;;;;;24.20;21.83;;;;;;;24.94;50.57;101974.81;5005108;28;20120;-62
2021/06/09 09:51:47;;;;;;;19.75;17.88;;;;;;;25.08;49.73;101980.59;5002970;28;20038;-61
2021/06/09 09:54:13;;;;;;;22.13;19.88;;;;;;;24.83;49.15;101981.91;5002538;28;20052;-60
2021/06/09 09:56:39;;;;;;;19.10;17.40;;;;;;;24.94;48.76;101990.34;5004759;28;20528;-60
2021/06/09 09:59:06;;;;;;;15.93;14.52;;;;;;;24.97;47.79;101995.88;5003612;28;20045;-61
2021/06/09 10:01:49;;;;;;;22.98;17.88;;;;;;;24.85;47.44;101981.56;5004943;28;20037;-57
2021/06/09 10:04:17;;;;;;;18.45;16.67;;;;;;;24.88;48.16;101986.28;5003293;28;20767;-57
2021/06/09 10:06:44;;;;;;;20.73;18.70;;;;;;;24.97;48.64;101982.28;4998259;28;20034;-58
2021/06/09 10:09:29;;;;;;;20.77;18.98;;;;;;;25.16;49.01;101982.34;4983669;28;20516;-58
2021/06/09 10:11:56;;;;;;;19.92;17.40;;;;;;;25.07;47.92;101983.66;4997655;28;20046;-58
2021/06/09 10:14:25;;;;;;;17.13;15.32;;;;;;;25.04;47.30;101982.44;4999655;28;20113;-58
2021/06/09 10:17:02;;;;;;;14.20;12.95;;;;;;;25.04;45.57;101979.72;5001837;28;20042;-58
2021/06/09 10:19:31;;;;;;;14.55;13.15;;;;;;;25.07;45.88;101979.03;5002936;28;20058;-58
2021/06/09 10:22:03;;;;;;;14.98;13.57;;;;;;;25.07;45.87;101975.50;4983633;28;20049;-58
2021/06/09 10:24:30;;;;;;;15.70;14.25;;;;;;;25.02;46.51;101981.22;5001736;28;20034;-58
2021/06/09 10:27:00;;;;;;;13.50;12.27;;;;;;;25.24;45.82;101983.31;5001017;28;20046;-60
2021/06/09 10:29:28;;;;;;;12.60;11.50;;;;;;;25.18;46.42;101973.84;5000924;28;20492;-58
2021/06/09 10:31:55;;;;;;;16.35;14.30;;;;;;;25.31;46.49;101978.03;5000854;28;20112;-58
2021/06/09 10:34:29;;;;;;;15.73;14.32;;;;;;;25.41;46.93;101976.72;5000864;28;20172;-57
2021/06/09 10:36:55;;;;;;;16.55;15.13;;;;;;;25.29;45.32;101970.22;5000546;28;20050;-60
2021/06/09 10:39:22;;;;;;;19.20;12.85;;;;;;;25.40;44.91;101969.66;4999761;28;20484;-55
2021/06/09 10:41:49;;;;;;;13.05;11.68;;;;;;;25.47;44.68;101978.00;4999265;28;20042;-54
2021/06/09 10:44:18;;;;;;;9.88;9.00;;;;;;;25.52;44.27;101975.03;4996838;28;20049;-57
2021/06/09 10:46:45;;;;;;;10.55;9.45;;;;;;;25.50;42.40;101977.31;4999726;28;20100;-56
2021/06/09 10:49:13;;;;;;;9.40;8.60;;;;;;;25.60;42.77;101977.53;4983014;28;20042;-56
2021/06/09 10:51:39;;;;;;;8.07;7.53;;;;;;;25.58;42.53;101974.41;5015460;28;20468;-54
2021/06/09 10:54:10;;;;;;;11.60;8.27;;;;;;;25.63;42.04;101965.94;4999944;28;20042;-54
2021/06/09 10:56:35;;;;;;;12.43;8.98;;;;;;;25.59;41.88;101972.47;4998867;28;20042;-54
2021/06/09 10:59:01;;;;;;;8.70;7.88;;;;;;;25.71;42.78;101969.63;4998743;28;20411;-54
2021/06/09 11:01:27;;;;;;;10.32;9.25;;;;;;;25.65;42.19;101969.13;4983935;28;20048;-55
2021/06/09 11:03:56;;;;;;;10.73;9.82;;;;;;;25.45;42.12;101967.47;4998520;28;20117;-54
2021/06/09 11:06:35;;;;;;;9.02;8.02;;;;;;;25.58;42.99;101962.72;4982188;28;20103;-55
2021/06/09 11:09:14;;;;;;;11.63;10.75;;;;;;;25.64;42.18;101970.25;4999341;28;20029;-52
2021/06/09 11:11:39;;;;;;;12.88;9.30;;;;;;;25.79;42.71;101966.69;5000920;28;20044;-53
2021/06/09 11:14:23;;;;;;;10.05;8.82;;;;;;;25.89;42.58;101968.06;4999260;28;20045;-53
2021/06/09 11:16:50;;;;;;;9.15;8.38;;;;;;;25.96;42.26;101962.00;5016152;28;20089;-54